x

Buoy F01 - West Penobscot Bay (44033) Wave Buoy

8:04 - Fri 18th Aug 2017 All times are EDT. -4 hours from GMT.

  • Sig Wave height 3.0ft
  • Peak Period 3s
  • Wind
    18mph, 22mph gusts
  • Sea Temp 57°f
  • Luft Temp 58°f
  • Sea Pressure 1011.7mb
  • Buoy F01 - West Penobscot Bay
  • Buoy F01 - West Penobscot Bay

More Historic Weather Station data

Upgrade to MSW Pro to gain access to the past 30 days of data for over 8000 Wavebouys and Weather Stations around the globe.

Join

Comparision Forecast

View Surf forecast
   
Fr 08/18 8:04 3ft 3s 18 22 mph 1011.7mb 57f 58f
7:04 2ft 6s 13 16 mph 1012.3mb 56f 58f
6:04 1ft 4s 9 13 mph 1012.8mb 57f 58f
5:04 1.3ft 8s 9 9 mph 1013.2mb 58f 58f
4:04 1.3ft 8s 9 11 mph 1014mb 59f 59f
3:04 1.3ft 8s 7 9 mph 1014.4mb 59f 59f
2:04 1.3ft 8s 7 9 mph 1014.6mb 60f 60f
1:04 1.3ft 8s 4 7 mph 1015.1mb 61f 61f
12:04 1ft 11s 4 4 mph 1015.4mb 60f 61f
11:04 1ft 11s 7 9 mph 1014.9mb 61f 61f
10:04 1ft 8s 4 7 mph 1014.8mb 60f 61f
9:04 1.3ft 8s 4 7 mph 1014.6mb 58f 60f
8:04 1.6ft 8s 7 7 mph 1014.6mb 59f 60f
7:04 1.3ft 8s 7 7 mph 1014.6mb 57f 60f
6:04 1.6ft 8s 2 4 mph 1014.5mb 57f 60f
5:04 1.6ft 8s 4 4 mph 1014.6mb 60f 61f
4:04 1ft 8s 4 4 mph 1014.7mb 59f 61f
3:04 1ft 8s 4 7 mph 1014.6mb 60f 62f
2:04 1.3ft 11s 2 4 mph 1015mb 60f 62f
1:04 1.3ft 11s 4 4 mph 1015mb 61f 63f
12:04 1.3ft 11s 7 7 mph 1014.9mb 62f 64f
Do 08/17 11:04 1.3ft 11s 2 2 mph 1014.7mb 61f 64f
10:04 1.6ft 8s 2 2 mph 1014.4mb 61f 63f
9:04 1.6ft 11s 2 4 mph 1013.7mb 62f 68f
8:04 1.6ft 8s 7 7 mph 1013mb 61f 68f
7:04 2ft 8s 7 9 mph 1012.8mb 62f 69f
6:04 2ft 8s 7 9 mph 1012.2mb 62f 71f
5:04 1.3ft 3s 7 9 mph 1011.9mb 62f 67f
4:04 1.3ft 3s 11 13 mph 1012.2mb 62f 66f
3:04 1.3ft 3s 7 11 mph 1012.5mb 62f 65f
2:04 2ft 11s 11 13 mph 1012.8mb 62f 71f
1:04 1.6ft 11s  -  mph - 61f -
12:04 1.6ft 11s 9 11 mph 1013.8mb 61f 68f
11:04 1.6ft 11s 13 16 mph 1014.4mb 61f 66f
10:04 1.6ft 11s 11 11 mph 1014.7mb 60f 65f
9:04 2ft 8s 9 11 mph 1014.7mb 60f 61f
8:04 1.6ft 8s 11 13 mph 1014.8mb 59f 60f
7:04 2ft 11s 11 13 mph 1014.7mb 59f 58f
6:04 2.5ft 8s 11 13 mph 1014mb 58f 58f
5:04 2.5ft 11s 11 13 mph 1014mb 59f 57f
4:04 2.5ft 11s 11 13 mph 1013.8mb 59f 60f
3:04 2ft 11s 13 16 mph 1013.8mb 60f 61f
2:04 2.5ft 11s 11 11 mph 1014.2mb 59f 60f
1:04 1ft 5s 9 11 mph 1014.3mb 60f 60f
12:04 1ft 6s 7 9 mph 1014.5mb 61f 62f
Mi 08/16 11:04 1.3ft 6s 7 9 mph 1014.4mb 61f 64f
10:04 2ft 11s 9 11 mph 1014.1mb 61f 65f
9:04 1.6ft 11s 9 9 mph 1013.6mb 58f 66f
8:04 1.3ft 6s 11 13 mph 1012.4mb 58f 67f
7:04 1.6ft 6s 11 13 mph 1011.5mb 58f 69f
6:04 2ft 8s 11 13 mph 1010.8mb 59f 69f
5:04 2ft 8s 9 11 mph 1010.6mb 58f 68f
4:04 2.5ft 8s 11 11 mph 1010.7mb 58f 68f
3:04 2ft 8s 11 13 mph 1010.6mb 62f 69f
2:04 2ft 8s 7 9 mph 1010.6mb 64f 69f
1:04 1.6ft 5s 4 9 mph 1010.6mb 62f 69f
12:04 1.6ft 5s 2 4 mph 1011mb 62f 71f
11:04 1.6ft 5s 2 2 mph 1011.3mb 62f 68f
10:04 2ft 5s 4 7 mph 1011mb 61f 66f
9:04 2ft 5s 2 2 mph 1011.1mb 58f 66f
8:04 2ft 6s 2 4 mph 1010.6mb 57f 65f
7:04 2ft 5s 4 4 mph 1010.2mb 59f 64f
6:04 2ft 5s 4 4 mph 1009.6mb 59f 60f
5:04 2ft 5s 4 7 mph 1009.1mb 60f 60f
4:04 2ft 5s 4 7 mph 1008.9mb 59f 62f
3:04 1.6ft 5s 4 7 mph 1009.1mb 60f 61f
2:04 1.6ft 5s 4 7 mph 1008.9mb 60f 62f
1:04 1ft 3s 7 9 mph 1009.2mb 60f 63f
12:04 1.3ft 6s 9 11 mph 1009.7mb 60f 63f
Di 08/15 11:04 1.3ft 6s 7 9 mph 1010.1mb 60f 61f
10:04 1.6ft 6s 4 7 mph 1010.4mb 59f 61f
9:04 2ft 6s 9 13 mph 1010.5mb 58f 63f
8:04 1.6ft 6s 11 13 mph 1010.2mb 59f 62f
7:04 1.6ft 8s 9 11 mph 1010.3mb 57f 61f
6:04 1.3ft 6s 9 9 mph 1010.3mb 56f 60f
5:04 1.3ft 6s 9 9 mph 1010.8mb 57f 60f
4:04 1.6ft 6s 11 11 mph 1011.6mb 56f 59f
3:04 1.3ft 8s 9 9 mph 1011.7mb 57f 59f
2:04 1.6ft 6s 7 7 mph 1012.4mb 59f 59f
1:04 1.6ft 8s 7 9 mph 1012.6mb 59f 60f
12:04 1.6ft 5s 7 9 mph 1013.1mb 60f 60f
11:04 1.6ft 8s 9 11 mph 1013.4mb 61f 59f
10:04 1.6ft 8s 7 9 mph 1013.5mb 60f 59f
9:04 2ft 6s 7 9 mph 1013.5mb 60f 59f
8:04 1.6ft 8s 4 4 mph 1013.5mb 59f 59f
7:04 2ft 6s 4 4 mph 1013.8mb 57f 58f
6:04 1.6ft 8s 2 4 mph 1013.7mb 57f 59f
5:04 2ft 6s 7 7 mph 1013.4mb 56f 59f
4:04 1.6ft 8s 7 7 mph 1013.3mb 57f 59f
3:04 1.6ft 6s 4 7 mph 1013.8mb 59f 61f
2:04 1.6ft 8s 4 4 mph 1014mb 61f 63f